createdAt,value
2019-02-17T00:00:55.153Z,84.40
2019-02-17T00:03:23.571Z,84.40
2019-02-17T00:05:52.126Z,84.40
2019-02-17T00:08:20.660Z,84.70
2019-02-17T00:10:49.074Z,84.60
2019-02-17T00:13:17.595Z,84.60
2019-02-17T00:15:46.079Z,84.90
2019-02-17T00:18:14.495Z,85.00
2019-02-17T00:20:42.964Z,84.70
2019-02-17T00:23:11.415Z,84.50
2019-02-17T00:25:39.812Z,84.50
2019-02-17T00:28:08.192Z,84.50
2019-02-17T00:30:36.691Z,84.70
2019-02-17T00:33:05.208Z,84.60
2019-02-17T00:35:33.585Z,84.60
2019-02-17T00:38:02.004Z,84.40
2019-02-17T00:40:30.472Z,84.60
2019-02-17T00:42:58.931Z,85.30
2019-02-17T00:45:27.347Z,84.40
2019-02-17T00:47:55.773Z,84.30
2019-02-17T00:50:24.207Z,84.70
2019-02-17T00:52:52.769Z,84.80
2019-02-17T00:55:21.185Z,84.70
2019-02-17T00:57:49.664Z,85.00
2019-02-17T01:00:18.347Z,85.20
2019-02-17T01:02:46.846Z,85.10
2019-02-17T01:05:15.302Z,85.20
2019-02-17T01:07:43.721Z,85.10
2019-02-17T01:10:12.139Z,84.90
2019-02-17T01:12:40.617Z,84.90
2019-02-17T01:15:11.508Z,85.20
2019-02-17T01:17:39.987Z,85.00
2019-02-17T01:20:09.743Z,84.80
2019-02-17T01:22:38.161Z,84.60
2019-02-17T01:25:08.711Z,84.60
2019-02-17T01:27:37.200Z,84.70
2019-02-17T01:30:26.651Z,84.60
2019-02-17T01:32:55.076Z,84.70
2019-02-17T01:35:23.564Z,85.00
2019-02-17T01:37:51.978Z,85.10
2019-02-17T01:40:20.394Z,85.10
2019-02-17T01:42:48.879Z,85.10
2019-02-17T01:45:17.295Z,85.20
2019-02-17T01:47:45.776Z,85.20
2019-02-17T01:50:14.199Z,85.30
2019-02-17T01:52:42.610Z,85.60
2019-02-17T01:55:11.031Z,85.70
2019-02-17T01:57:39.517Z,86.00
2019-02-17T02:00:11.099Z,86.20
2019-02-17T02:02:39.520Z,86.30
2019-02-17T02:05:08.006Z,86.70
2019-02-17T02:07:36.421Z,86.90
2019-02-17T02:10:07.440Z,87.10
2019-02-17T02:12:35.174Z,87.10
2019-02-17T02:15:03.654Z,87.00
2019-02-17T02:17:32.069Z,87.20
2019-02-17T02:20:00.447Z,87.30
2019-02-17T02:22:28.822Z,87.30
2019-02-17T02:24:57.311Z,87.50
2019-02-17T02:27:25.718Z,87.80
2019-02-17T02:29:54.215Z,88.00
2019-02-17T02:32:22.629Z,88.30
2019-02-17T02:34:51.047Z,89.20
2019-02-17T02:37:19.463Z,88.70
2019-02-17T02:39:47.949Z,89.00
2019-02-17T02:42:17.231Z,89.00
2019-02-17T02:44:45.650Z,89.20
2019-02-17T02:47:14.071Z,89.60
2019-02-17T02:49:42.613Z,89.30
2019-02-17T02:52:11.025Z,89.50
2019-02-17T02:54:39.443Z,89.80
2019-02-17T02:57:07.854Z,90.40
2019-02-17T02:59:36.292Z,90.20
2019-02-17T03:02:04.782Z,90.30
2019-02-17T03:04:33.304Z,90.30
2019-02-17T03:07:02.085Z,90.40
2019-02-17T03:09:30.579Z,90.40
2019-02-17T03:11:58.991Z,90.30
2019-02-17T03:14:27.434Z,90.40
2019-02-17T03:16:55.826Z,90.40
2019-02-17T03:19:24.261Z,90.40
2019-02-17T03:21:52.679Z,90.50
2019-02-17T03:24:40.525Z,90.70
2019-02-17T03:27:08.943Z,90.80
2019-02-17T03:29:37.356Z,90.90
2019-02-17T03:32:05.847Z,91.00
2019-02-17T03:34:34.254Z,91.10
2019-02-17T03:37:02.738Z,91.20
2019-02-17T03:39:31.152Z,91.10
2019-02-17T03:41:59.688Z,91.10
2019-02-17T03:44:28.104Z,91.30
2019-02-17T03:46:56.589Z,91.30
2019-02-17T03:49:25.016Z,91.40
2019-02-17T03:51:53.494Z,91.40
2019-02-17T03:54:21.903Z,91.40
2019-02-17T03:56:50.394Z,91.50
2019-02-17T03:59:38.248Z,91.40
2019-02-17T04:02:06.724Z,91.30
2019-02-17T04:04:35.174Z,91.40
2019-02-17T04:07:03.659Z,91.30
2019-02-17T04:09:32.084Z,91.40
2019-02-17T04:12:00.495Z,91.40
2019-02-17T04:14:28.911Z,91.40
2019-02-17T04:16:57.322Z,91.60
2019-02-17T04:19:25.702Z,91.40
2019-02-17T04:21:54.080Z,91.50
2019-02-17T04:24:22.496Z,91.40
2019-02-17T04:26:50.870Z,91.50
2019-02-17T04:29:19.275Z,91.60
2019-02-17T04:31:47.671Z,91.60
2019-02-17T04:34:16.086Z,91.60
2019-02-17T04:36:44.503Z,91.70
2019-02-17T04:39:12.950Z,91.70
2019-02-17T04:41:41.366Z,91.80
2019-02-17T04:44:09.864Z,91.80
2019-02-17T04:46:50.889Z,91.90
2019-02-17T04:49:19.306Z,91.90
2019-02-17T04:51:47.727Z,91.90
2019-02-17T04:54:16.220Z,91.90
2019-02-17T04:56:44.628Z,92.00
2019-02-17T04:59:13.084Z,91.90
2019-02-17T05:01:41.508Z,91.50
2019-02-17T05:04:09.987Z,91.60
2019-02-17T05:06:40.754Z,91.60
2019-02-17T05:09:08.534Z,91.60
2019-02-17T05:11:36.961Z,91.40
2019-02-17T05:14:05.375Z,91.40
2019-02-17T05:16:33.786Z,91.30
2019-02-17T05:19:02.232Z,91.10
2019-02-17T05:21:30.615Z,91.10
2019-02-17T05:23:59.059Z,91.20
2019-02-17T05:26:27.523Z,90.70
2019-02-17T05:28:56.648Z,90.60
2019-02-17T05:31:25.119Z,90.40
2019-02-17T05:33:53.533Z,90.40
2019-02-17T05:36:21.945Z,90.40
2019-02-17T05:38:50.359Z,90.30
2019-02-17T05:41:18.786Z,90.20
2019-02-17T05:43:47.199Z,90.10
2019-02-17T05:46:15.619Z,90.20
2019-02-17T05:48:44.123Z,90.00
2019-02-17T05:51:12.536Z,90.00
2019-02-17T05:53:41.023Z,90.00
2019-02-17T05:56:09.442Z,90.00
2019-02-17T05:58:37.910Z,90.10
2019-02-17T06:01:07.427Z,90.30
2019-02-17T06:03:36.048Z,90.30
2019-02-17T06:06:04.530Z,90.40
2019-02-17T06:08:32.951Z,90.50
2019-02-17T06:11:01.361Z,90.40
2019-02-17T06:13:29.778Z,90.40
2019-02-17T06:15:58.215Z,90.60
2019-02-17T06:18:26.627Z,90.50
2019-02-17T06:20:55.043Z,90.70
2019-02-17T06:23:23.463Z,90.20
2019-02-17T06:25:51.881Z,89.90
2019-02-17T06:28:20.291Z,90.10
2019-02-17T06:30:48.782Z,89.30
2019-02-17T06:33:17.187Z,89.10
2019-02-17T06:36:05.041Z,88.40
2019-02-17T06:38:33.443Z,87.70
2019-02-17T06:41:01.911Z,87.60
2019-02-17T06:43:30.403Z,87.70
2019-02-17T06:45:59.286Z,87.90
2019-02-17T06:48:27.700Z,88.30
2019-02-17T06:50:56.107Z,88.80
2019-02-17T06:53:24.563Z,88.90
2019-02-17T06:55:57.350Z,88.80
2019-02-17T06:58:25.768Z,89.00
2019-02-17T07:00:54.244Z,88.90
2019-02-17T07:03:22.690Z,89.10
2019-02-17T07:05:52.723Z,89.30
2019-02-17T07:08:21.144Z,89.30
2019-02-17T07:10:49.622Z,89.30
2019-02-17T07:13:18.043Z,89.40
2019-02-17T07:15:46.527Z,89.20
2019-02-17T07:18:14.978Z,88.80
2019-02-17T07:20:43.359Z,88.40
2019-02-17T07:23:11.846Z,88.00
2019-02-17T07:25:40.260Z,87.70
2019-02-17T07:28:08.742Z,87.90
2019-02-17T07:30:37.188Z,87.50
2019-02-17T07:33:05.644Z,86.80
2019-02-17T07:35:34.017Z,86.80
2019-02-17T07:38:02.439Z,86.70
2019-02-17T07:40:30.861Z,86.20
2019-02-17T07:42:59.275Z,86.10
2019-02-17T07:45:27.695Z,85.90
2019-02-17T07:47:56.116Z,86.10
2019-02-17T07:50:24.545Z,85.30
2019-02-17T07:52:53.902Z,84.50
2019-02-17T07:55:22.324Z,84.10
2019-02-17T07:57:50.762Z,83.50
2019-02-17T08:00:19.179Z,84.00
2019-02-17T08:02:49.521Z,83.20
2019-02-17T08:05:17.659Z,82.50
2019-02-17T08:07:46.153Z,81.90
2019-02-17T08:10:17.683Z,81.60
2019-02-17T08:12:46.227Z,81.90
2019-02-17T08:15:14.595Z,81.30
2019-02-17T08:17:43.027Z,81.40
2019-02-17T08:20:13.004Z,80.30
2019-02-17T08:22:44.539Z,80.90
2019-02-17T08:25:21.428Z,79.80
2019-02-17T08:27:43.162Z,79.90
2019-02-17T08:30:14.679Z,80.20
2019-02-17T08:32:44.161Z,79.50
2019-02-17T08:35:14.096Z,78.60
2019-02-17T08:37:42.591Z,77.90
2019-02-17T08:40:11.117Z,79.30
2019-02-17T08:42:39.532Z,78.70
2019-02-17T08:45:09.438Z,77.90
2019-02-17T08:47:37.799Z,76.80
2019-02-17T08:50:11.275Z,75.80
2019-02-17T08:52:39.696Z,76.00
2019-02-17T08:55:09.852Z,75.10
2019-02-17T08:57:38.295Z,75.70
2019-02-17T09:00:26.192Z,75.20
2019-02-17T09:02:54.615Z,75.50
2019-02-17T09:05:23.031Z,74.30
2019-02-17T09:07:51.452Z,73.80
2019-02-17T09:10:19.932Z,73.90
2019-02-17T09:12:48.350Z,74.20
2019-02-17T09:15:16.775Z,74.60
2019-02-17T09:17:45.185Z,74.30
2019-02-17T09:20:13.604Z,73.50
2019-02-17T09:22:42.023Z,73.50
2019-02-17T09:25:11.470Z,72.50
2019-02-17T09:27:39.899Z,73.10
2019-02-17T09:30:33.502Z,72.00
2019-02-17T09:33:02.005Z,72.80
2019-02-17T09:35:30.503Z,73.10
2019-02-17T09:37:58.933Z,73.50
2019-02-17T09:40:27.336Z,73.40
2019-02-17T09:42:55.822Z,74.30
2019-02-17T09:45:24.238Z,74.50
2019-02-17T09:47:52.724Z,73.40
2019-02-17T09:50:21.415Z,72.90
2019-02-17T09:53:09.264Z,71.90
2019-02-17T09:55:38.851Z,72.50
2019-02-17T09:58:07.328Z,72.10
2019-02-17T10:00:35.671Z,72.00
2019-02-17T10:03:04.087Z,72.00
2019-02-17T10:05:32.508Z,72.20
2019-02-17T10:08:00.915Z,71.70
2019-02-17T10:10:29.335Z,71.40
2019-02-17T10:12:57.742Z,70.00
2019-02-17T10:15:26.156Z,70.70
2019-02-17T10:17:54.647Z,70.20
2019-02-17T10:20:24.571Z,70.30
2019-02-17T10:22:53.239Z,70.10
2019-02-17T10:25:21.670Z,70.50
2019-02-17T10:27:50.092Z,71.10
2019-02-17T10:30:18.674Z,70.60
2019-02-17T10:32:47.156Z,70.00
2019-02-17T10:35:15.567Z,70.80
2019-02-17T10:37:43.974Z,70.40
2019-02-17T10:40:36.619Z,71.00
2019-02-17T10:43:05.098Z,71.60
2019-02-17T10:45:33.520Z,71.40
2019-02-17T10:48:01.923Z,71.30
2019-02-17T10:50:30.343Z,71.50
2019-02-17T10:52:58.829Z,71.10
2019-02-17T10:55:27.199Z,70.50
2019-02-17T10:58:07.887Z,70.10
2019-02-17T11:00:36.363Z,69.60
2019-02-17T11:03:07.010Z,69.40
2019-02-17T11:05:35.517Z,69.30
2019-02-17T11:08:04.006Z,69.70
2019-02-17T11:10:32.494Z,69.40
2019-02-17T11:13:00.983Z,69.40
2019-02-17T11:15:29.468Z,70.10
2019-02-17T11:17:57.884Z,69.60
2019-02-17T11:20:26.362Z,69.10
2019-02-17T11:22:54.775Z,69.10
2019-02-17T11:25:23.267Z,69.50
2019-02-17T11:27:51.750Z,68.90
2019-02-17T11:30:30.439Z,69.00
2019-02-17T11:32:59.286Z,68.60
2019-02-17T11:35:29.747Z,68.90
2019-02-17T11:37:57.760Z,69.10
2019-02-17T11:40:26.166Z,69.30
2019-02-17T11:42:54.587Z,69.20
2019-02-17T11:45:23.003Z,68.90
2019-02-17T11:47:51.553Z,68.70
2019-02-17T11:50:19.970Z,68.80
2019-02-17T11:52:48.450Z,69.00
2019-02-17T11:55:16.860Z,68.50
2019-02-17T11:57:45.274Z,68.20
2019-02-17T12:00:21.662Z,69.10
2019-02-17T12:02:50.073Z,68.40
2019-02-17T12:05:18.496Z,67.90
2019-02-17T12:07:47.099Z,67.80
2019-02-17T12:10:15.575Z,68.30
2019-02-17T12:12:44.062Z,68.20
2019-02-17T12:15:13.709Z,67.30
2019-02-17T12:17:42.192Z,68.00
2019-02-17T12:22:55.296Z,68.10
2019-02-17T12:25:25.330Z,68.00
2019-02-17T12:27:55.389Z,67.80
2019-02-17T12:30:23.874Z,68.10
2019-02-17T12:32:52.288Z,68.10
2019-02-17T12:35:20.704Z,68.10
2019-02-17T12:37:49.115Z,67.70
2019-02-17T12:40:17.531Z,67.70
2019-02-17T12:42:45.953Z,67.10
2019-02-17T12:45:17.976Z,66.90
2019-02-17T12:47:44.504Z,67.10
2019-02-17T12:50:13.099Z,67.50
2019-02-17T12:52:47.058Z,68.10
2019-02-17T12:55:11.611Z,68.10
2019-02-17T12:57:40.092Z,67.40
2019-02-17T13:00:15.282Z,67.30
2019-02-17T13:02:43.834Z,67.40
2019-02-17T13:05:12.908Z,67.50
2019-02-17T13:07:42.865Z,67.50
2019-02-17T13:10:11.965Z,67.70
2019-02-17T13:12:40.465Z,67.40
2019-02-17T13:15:34.008Z,67.70
2019-02-17T13:18:02.591Z,67.40
2019-02-17T13:20:30.986Z,67.90
2019-02-17T13:22:59.477Z,68.00
2019-02-17T13:25:27.963Z,68.10
2019-02-17T13:27:56.372Z,68.10
2019-02-17T13:30:26.490Z,68.50
2019-02-17T13:32:54.944Z,69.00
2019-02-17T13:35:23.462Z,70.00
2019-02-17T13:37:51.949Z,69.60
2019-02-17T13:40:20.323Z,70.00
2019-02-17T13:42:48.770Z,70.50
2019-02-17T13:45:17.563Z,70.60
2019-02-17T13:47:45.994Z,71.30
2019-02-17T13:50:15.670Z,71.10
2019-02-17T13:52:44.192Z,71.40
2019-02-17T13:55:12.606Z,71.80
2019-02-17T13:57:41.024Z,72.00
2019-02-17T14:00:12.706Z,72.00
2019-02-17T14:02:41.201Z,72.30
2019-02-17T14:05:09.613Z,72.60
2019-02-17T14:07:38.019Z,73.40
2019-02-17T14:10:11.545Z,73.50
2019-02-17T14:12:40.049Z,73.80
2019-02-17T14:15:11.448Z,73.70
2019-02-17T14:17:39.853Z,73.90
2019-02-17T14:20:10.179Z,73.80
2019-02-17T14:22:38.637Z,74.00
2019-02-17T14:25:10.890Z,73.90
2019-02-17T14:27:38.915Z,74.40
2019-02-17T14:30:13.786Z,74.50
2019-02-17T14:32:42.195Z,75.20
2019-02-17T14:35:10.671Z,75.00
2019-02-17T14:37:39.091Z,75.10
2019-02-17T14:40:10.013Z,75.70
2019-02-17T14:42:38.434Z,75.80
2019-02-17T14:45:10.340Z,76.10
2019-02-17T14:47:38.759Z,76.50
2019-02-17T14:50:08.345Z,76.80
2019-02-17T14:52:36.788Z,77.30
2019-02-17T14:55:07.384Z,77.40
2019-02-17T14:57:35.793Z,78.30
2019-02-17T15:00:07.301Z,78.10
2019-02-17T15:02:35.680Z,78.50
2019-02-17T15:05:04.807Z,79.00
2019-02-17T15:07:33.216Z,79.30
2019-02-17T15:10:01.736Z,79.80
2019-02-17T15:12:30.151Z,80.40
2019-02-17T15:14:58.555Z,80.70
2019-02-17T15:17:26.972Z,81.00
2019-02-17T15:19:55.341Z,81.40
2019-02-17T15:22:23.726Z,81.70
2019-02-17T15:24:52.143Z,82.00
2019-02-17T15:27:20.558Z,82.30
2019-02-17T15:29:48.977Z,82.90
2019-02-17T15:32:17.461Z,83.90
2019-02-17T15:34:45.872Z,83.40
2019-02-17T15:37:14.380Z,83.60
2019-02-17T15:39:42.798Z,83.90
2019-02-17T15:42:11.197Z,84.00
2019-02-17T15:44:41.225Z,84.20
2019-02-17T15:47:09.656Z,84.40
2019-02-17T15:49:39.950Z,84.50
2019-02-17T15:52:08.200Z,84.80
2019-02-17T15:54:36.625Z,84.90
2019-02-17T15:57:05.040Z,84.70
2019-02-17T15:59:33.524Z,85.00
2019-02-17T16:02:01.951Z,85.00
2019-02-17T16:04:30.374Z,84.80
2019-02-17T16:06:58.874Z,84.70
2019-02-17T16:09:27.304Z,84.50
2019-02-17T16:11:55.835Z,84.40
2019-02-17T16:14:24.286Z,84.50
2019-02-17T16:16:52.834Z,84.40
2019-02-17T16:19:21.255Z,84.70
2019-02-17T16:21:49.723Z,84.60
2019-02-17T16:24:18.145Z,84.60
2019-02-17T16:26:46.631Z,84.40
2019-02-17T16:29:15.062Z,84.10
2019-02-17T16:31:43.545Z,84.10
2019-02-17T16:34:11.965Z,84.10
2019-02-17T16:36:40.446Z,84.00
2019-02-17T16:39:10.506Z,83.80
2019-02-17T16:41:38.923Z,83.50
2019-02-17T16:44:07.338Z,83.00
2019-02-17T16:47:01.809Z,83.30
2019-02-17T16:49:30.286Z,82.70
2019-02-17T16:51:58.706Z,82.40
2019-02-17T16:54:27.164Z,82.00
2019-02-17T16:56:55.579Z,81.70
2019-02-17T16:59:24.039Z,81.50
2019-02-17T17:01:52.448Z,81.50
2019-02-17T17:04:20.869Z,81.60
2019-02-17T17:06:49.278Z,81.30
2019-02-17T17:09:17.766Z,81.10
2019-02-17T17:11:46.183Z,81.20
2019-02-17T17:14:14.679Z,81.20
2019-02-17T17:16:43.099Z,81.40
2019-02-17T17:19:11.587Z,81.30
2019-02-17T17:21:40.006Z,81.70
2019-02-17T17:24:08.486Z,82.20
2019-02-17T17:26:36.910Z,82.60
2019-02-17T17:29:05.394Z,83.10
2019-02-17T17:31:33.824Z,83.50
2019-02-17T17:34:02.295Z,83.90
2019-02-17T17:36:30.706Z,84.10
2019-02-17T17:38:59.140Z,84.20
2019-02-17T17:41:27.551Z,84.40
2019-02-17T17:43:55.993Z,84.30
2019-02-17T17:46:24.409Z,84.60
2019-02-17T17:48:52.912Z,84.60
2019-02-17T17:51:21.321Z,84.70
2019-02-17T17:53:49.734Z,84.70
2019-02-17T17:56:18.157Z,84.50
2019-02-17T17:58:46.594Z,84.60
2019-02-17T18:01:14.970Z,84.60
2019-02-17T18:03:43.456Z,84.60
2019-02-17T18:06:11.877Z,84.70
2019-02-17T18:08:40.441Z,84.80
2019-02-17T18:11:08.827Z,84.80
2019-02-17T18:13:37.271Z,84.80
2019-02-17T18:16:05.679Z,84.90
2019-02-17T18:18:34.180Z,84.90
2019-02-17T18:21:02.583Z,85.20
2019-02-17T18:23:31.081Z,85.50
2019-02-17T18:26:25.518Z,85.70
2019-02-17T18:28:54.004Z,85.80
2019-02-17T18:31:22.377Z,86.20
2019-02-17T18:33:50.764Z,86.30
2019-02-17T18:36:19.203Z,86.60
2019-02-17T18:38:47.656Z,86.80
2019-02-17T18:41:16.096Z,86.80
2019-02-17T18:43:44.588Z,87.20
2019-02-17T18:46:32.432Z,87.40
2019-02-17T18:49:00.971Z,87.70
2019-02-17T18:51:29.363Z,87.70
2019-02-17T18:53:59.222Z,88.20
2019-02-17T18:56:27.641Z,88.50
2019-02-17T18:58:56.230Z,88.60
2019-02-17T19:01:24.646Z,88.80
2019-02-17T19:03:54.279Z,88.80
2019-02-17T19:06:22.655Z,88.80
2019-02-17T19:08:51.148Z,88.90
2019-02-17T19:11:19.566Z,89.10
2019-02-17T19:13:48.055Z,89.20
2019-02-17T19:16:16.440Z,89.20
2019-02-17T19:18:44.893Z,89.40
2019-02-17T19:21:13.588Z,89.40
2019-02-17T19:23:41.995Z,89.70
2019-02-17T19:26:10.554Z,89.70
2019-02-17T19:28:38.973Z,89.90
2019-02-17T19:31:08.715Z,90.00
2019-02-17T19:33:37.129Z,90.10
2019-02-17T19:36:05.772Z,90.20
2019-02-17T19:38:34.142Z,90.30
2019-02-17T19:41:02.624Z,90.40
2019-02-17T19:43:32.222Z,90.40
2019-02-17T19:46:00.710Z,90.40
2019-02-17T19:48:29.129Z,90.60
2019-02-17T19:50:57.629Z,90.70
2019-02-17T19:53:26.214Z,90.70
2019-02-17T19:55:54.698Z,90.80
2019-02-17T19:58:23.115Z,90.80
2019-02-17T20:00:51.529Z,90.80
2019-02-17T20:03:27.295Z,91.00
2019-02-17T20:05:57.360Z,91.00
2019-02-17T20:08:25.771Z,91.10
2019-02-17T20:10:54.222Z,91.20
2019-02-17T20:13:22.716Z,91.40
2019-02-17T20:15:51.223Z,91.50
2019-02-17T20:18:19.631Z,91.40
2019-02-17T20:20:48.090Z,91.60
2019-02-17T20:23:16.530Z,91.70
2019-02-17T20:25:44.996Z,91.50
2019-02-17T20:28:13.366Z,91.70
2019-02-17T20:30:41.811Z,91.70
2019-02-17T20:33:10.185Z,91.70
2019-02-17T20:35:38.655Z,91.80
2019-02-17T20:38:07.080Z,91.90
2019-02-17T20:40:35.571Z,91.90
2019-02-17T20:43:04.050Z,92.00
2019-02-17T20:45:32.468Z,92.10
2019-02-17T20:48:00.883Z,92.00
2019-02-17T20:50:29.266Z,92.20
2019-02-17T20:52:57.712Z,92.10
2019-02-17T20:55:26.132Z,92.20
2019-02-17T20:57:54.872Z,92.20
2019-02-17T21:00:24.916Z,92.30
2019-02-17T21:02:53.400Z,92.30
2019-02-17T21:05:21.808Z,92.30
2019-02-17T21:07:50.186Z,92.20
2019-02-17T21:10:18.563Z,92.30
2019-02-17T21:12:47.053Z,92.30
2019-02-17T21:15:36.529Z,92.40
2019-02-17T21:18:04.961Z,92.30
2019-02-17T21:20:52.791Z,92.40
2019-02-17T21:23:21.347Z,92.40
2019-02-17T21:25:49.854Z,92.40
2019-02-17T21:28:18.396Z,92.50
2019-02-17T21:30:46.779Z,92.40
2019-02-17T21:33:15.259Z,92.30
2019-02-17T21:35:43.678Z,92.40
2019-02-17T21:38:12.099Z,92.30
2019-02-17T21:40:40.517Z,92.20
2019-02-17T21:43:08.923Z,92.20
2019-02-17T21:45:37.342Z,92.40
2019-02-17T21:48:05.855Z,92.40
2019-02-17T21:50:34.227Z,92.40
2019-02-17T21:53:02.683Z,92.20
2019-02-17T21:55:31.170Z,92.30
2019-02-17T21:57:59.650Z,92.40
2019-02-17T22:00:28.129Z,92.60
2019-02-17T22:02:56.485Z,92.40
2019-02-17T22:05:24.956Z,92.50
2019-02-17T22:07:53.389Z,92.50
2019-02-17T22:10:21.795Z,92.50
2019-02-17T22:12:51.355Z,92.70
2019-02-17T22:15:21.235Z,92.70
2019-02-17T22:17:49.616Z,92.60
2019-02-17T22:20:18.113Z,92.70
2019-02-17T22:22:46.523Z,92.80
2019-02-17T22:25:16.856Z,92.80
2019-02-17T22:27:45.578Z,92.90
2019-02-17T22:30:15.182Z,93.00
2019-02-17T22:32:43.606Z,92.90
2019-02-17T22:35:12.088Z,92.90
2019-02-17T22:37:40.521Z,92.90
2019-02-17T22:40:11.337Z,93.00
2019-02-17T22:42:39.794Z,93.30
2019-02-17T22:45:10.404Z,93.20
2019-02-17T22:47:38.859Z,93.50
2019-02-17T22:50:15.238Z,93.50
2019-02-17T22:52:44.969Z,93.60
2019-02-17T22:55:14.199Z,93.70
2019-02-17T22:57:42.738Z,93.70
2019-02-17T23:00:47.753Z,93.60
2019-02-17T23:03:16.274Z,93.70
2019-02-17T23:05:44.781Z,94.00
2019-02-17T23:08:13.171Z,93.90
2019-02-17T23:10:41.671Z,93.80
2019-02-17T23:13:10.152Z,94.00
2019-02-17T23:15:38.583Z,93.60
2019-02-17T23:18:07.072Z,93.70
2019-02-17T23:20:35.550Z,94.00
2019-02-17T23:23:04.044Z,94.10
2019-02-17T23:25:32.420Z,94.00
2019-02-17T23:28:00.802Z,94.00
2019-02-17T23:30:29.170Z,93.90
2019-02-17T23:32:57.631Z,94.00
2019-02-17T23:35:26.114Z,94.10
2019-02-17T23:37:56.327Z,94.00
2019-02-17T23:40:24.739Z,94.00
2019-02-17T23:43:12.658Z,93.80
2019-02-17T23:45:41.088Z,94.00
2019-02-17T23:48:09.576Z,94.00
2019-02-17T23:50:37.999Z,93.90
2019-02-17T23:53:06.498Z,94.10
2019-02-17T23:55:34.929Z,94.20
2019-02-17T23:58:03.423Z,94.20
